ADDS METAR Data INFO
IDs: Format: Raw Decoded Include TAF

Data at: 1333 UTC 19 Jul 2018

KBBB 191315Z AUTO 14007G16KT 5SM RA SCT007 BKN017 OVC060 20/19 A2973 RMK AO2 P0016
KBBB 191255Z AUTO 13009G14KT 10SM RA SCT015 BKN022 OVC060 20/18 A2974 RMK AO2 P0003
KBBB 191235Z AUTO 15009G16KT 10SM RA SCT007 BKN014 OVC070 20/18 A2976 RMK AO2 P0004
KBBB 191215Z AUTO 15012G15KT 10SM -RA SCT009 BKN050 OVC095 20/18 A2976 RMK AO2
KBBB 191155Z AUTO 15009G16KT 10SM RA SCT065 SCT070 BKN100 20/18 A2976 RMK AO2 P0003
KBBB 191135Z AUTO 15008G15KT 10SM -RA SCT010 SCT019 BKN065 20/18 A2977 RMK AO2 P0002
KBBB 191115Z AUTO 15009G17KT 10SM RA SCT014 SCT036 BKN110 21/19 A2978 RMK AO2 P0001
KBBB 191055Z AUTO 15008KT 10SM SCT024 BKN033 BKN080 20/18 A2979 RMK AO2 P0044
KBBB 191035Z AUTO 13006KT 10SM BKN008 BKN020 OVC026 20/19 A2980 RMK AO2 P0044
KBBB 191015Z AUTO 18010KT 10SM -RA SCT004 BKN010 OVC030 21/19 A2981 RMK AO2 P0044
KBBB 190955Z AUTO 14011G17KT 5SM +RA SCT004 BKN032 OVC039 20/19 A2981 RMK AO2 P0019
KBBB 190935Z AUTO 13008KT 7SM +RA SCT027 BKN040 OVC048 20/19 A2981 RMK AO2 P0032
KBBB 190915Z AUTO 13004KT 10SM RA SCT010 BKN030 OVC042 20/18 A2983 RMK AO2 P0017
KBBB 190855Z AUTO 16005KT 5SM +RA SCT008 BKN016 OVC065 21/19 A2985 RMK AO2 P0009
KBBB 190835Z AUTO 19011KT 7SM RA SCT013 BKN050 OVC070 21/18 A2985 RMK AO2 P0003
KBBB 190815Z AUTO 15007KT 10SM SCT050 BKN060 OVC095 22/18 A2985 RMK AO2
KBBB 190755Z AUTO 14010KT 10SM BKN070 BKN085 21/18 A2985 RMK AO2
KBBB 190735Z AUTO 15009KT 10SM SCT070 22/18 A2986 RMK AO2
KBBB 190715Z AUTO 16009KT 10SM SCT080 22/18 A2986 RMK AO2
KBBB 190655Z AUTO 17009KT 10SM SCT065 BKN080 22/18 A2987 RMK AO2
KBBB 190635Z AUTO 17008KT 10SM SCT050 SCT065 OVC070 22/18 A2988 RMK AO2
KBBB 190615Z AUTO 15008KT 10SM BKN050 BKN065 OVC075 22/18 A2988 RMK AO2
KBBB 190555Z AUTO 15007KT 10SM BKN050 OVC065 22/18 A2989 RMK AO2
KBBB 190535Z AUTO 15007KT 10SM SCT050 BKN095 22/18 A2990 RMK AO2
KBBB 190515Z AUTO 14009KT 105V165 10SM CLR 22/18 A2990 RMK AO2
KBBB 190455Z AUTO 14009KT 10SM CLR 22/18 A2991 RMK AO2
KBBB 190435Z AUTO 14007KT 10SM CLR 22/18 A2991 RMK AO2
KBBB 190415Z AUTO 15008KT 10SM CLR 23/19 A2992 RMK AO2
KBBB 190355Z AUTO 14008KT 10SM CLR 23/19 A2992 RMK AO2
KBBB 190335Z AUTO 15007KT 10SM CLR 23/19 A2993 RMK AO2
KBBB 190315Z AUTO 15007KT 10SM CLR 23/19 A2993 RMK AO2
KBBB 190255Z AUTO 15008KT 10SM CLR 24/19 A2992 RMK AO2
KBBB 190235Z AUTO 15006KT 10SM CLR 24/19 A2993 RMK AO2
KBBB 190215Z AUTO 15006KT 10SM CLR 24/19 A2993 RMK AO2
KBBB 190155Z AUTO 15004KT 10SM CLR 24/19 A2993 RMK AO2
KBBB 190135Z AUTO 14004KT 10SM CLR 25/19 A2993 RMK AO2
KBBB 190116Z AUTO 15004KT 10SM CLR 25/19 A2994 RMK AO2
KBBB 190055Z AUTO 17006KT 10SM CLR 26/19 A2995 RMK AO2
KBBB 190035Z AUTO 17004KT 10SM CLR 27/19 A2995 RMK AO2
KBBB 190015Z AUTO 18006KT 10SM CLR 27/19 A2995 RMK AO2
KBBB 182355Z AUTO 16008KT 10SM CLR 27/19 A2995 RMK AO2
KBBB 182335Z AUTO 15006KT 10SM CLR 28/19 A2995 RMK AO2
KBBB 182315Z AUTO 16009G14KT 10SM CLR 28/18 A2996 RMK AO2
KBBB 182255Z AUTO 18008KT 10SM SCT037 27/19 A2997 RMK AO2
KBBB 182235Z AUTO 17007KT 10SM CLR 27/19 A2998 RMK AO2
KBBB 182215Z AUTO 13006KT 10SM CLR 28/18 A2998 RMK AO2
KBBB 182155Z AUTO 16009KT 10SM SCT035 28/18 A2999 RMK AO2
KBBB 182135Z AUTO 18009KT 10SM SCT037 27/18 A3000 RMK AO2
KBBB 182115Z AUTO 18009KT 10SM CLR 28/19 A3001 RMK AO2
KBBB 182055Z AUTO 18008KT 10SM CLR 27/19 A3001 RMK AO2
KBBB 182035Z AUTO 18009KT 10SM CLR 28/18 A3002 RMK AO2
KBBB 182015Z AUTO 16007KT 10SM CLR 28/19 A3002 RMK AO2
KBBB 181955Z AUTO 15004KT 10SM CLR 28/18 A3003 RMK AO2
KBBB 181935Z AUTO 16007KT 10SM CLR 27/18 A3003 RMK AO2
KBBB 181915Z AUTO 16007KT 10SM CLR 27/18 A3004 RMK AO2
KBBB 181855Z AUTO 18005KT 10SM SCT060 SCT070 27/18 A3005 RMK AO2
KBBB 181835Z AUTO 17007KT 10SM BKN070 26/18 A3005 RMK AO2
KBBB 181815Z AUTO 17007KT 10SM SCT060 26/18 A3005 RMK AO2
KBBB 181755Z AUTO 19006KT 10SM CLR 26/18 A3005 RMK AO2
KBBB 181735Z AUTO 17007KT 10SM CLR 27/18 A3006 RMK AO2
KBBB 181715Z AUTO 18007KT 10SM CLR 26/18 A3006 RMK AO2
KBBB 181655Z AUTO 19007KT 10SM CLR 26/18 A3007 RMK AO2
KBBB 181635Z AUTO 20007KT 10SM CLR 26/18 A3007 RMK AO2
KBBB 181615Z AUTO 18006KT 10SM SCT050 25/18 A3007 RMK AO2
KBBB 181555Z AUTO 21008KT 10SM SCT050 26/18 A3007 RMK AO2
KBBB 181535Z AUTO 19008KT 10SM CLR 25/17 A3007 RMK AO2
KBBB 181515Z AUTO 18007KT 10SM CLR 24/17 A3008 RMK AO2
KBBB 181455Z AUTO 18007KT 10SM CLR 24/17 A3008 RMK AO2
KBBB 181435Z AUTO 19008KT 10SM CLR 24/16 A3008 RMK AO2
KBBB 181415Z AUTO 19007KT 10SM SCT060 23/16 A3009 RMK AO2
KBBB 181355Z AUTO 19009KT 10SM SCT060 23/16 A3010 RMK AO2
KBBB 181335Z AUTO 19008KT 10SM SCT060 22/16 A3010 RMK AO2
KBBB 181315Z AUTO 19007KT 10SM CLR 22/15 A3010 RMK AO2
KBBB 181255Z AUTO 18005KT 10SM CLR 21/15 A3010 RMK AO2
KBBB 181235Z AUTO 19005KT 10SM CLR 19/14 A3010 RMK AO2
KBBB 181215Z AUTO 18005KT 10SM CLR 19/14 A3010 RMK AO2
KBBB 181155Z AUTO 17005KT 10SM CLR 19/14 A3010 RMK AO2
KBBB 181135Z AUTO 17006KT 10SM CLR 18/14 A3010 RMK AO2
KBBB 181115Z AUTO 14003KT 10SM CLR 18/14 A3011 RMK AO2
KBBB 181055Z AUTO 15003KT 10SM CLR 17/14 A3011 RMK AO2
KBBB 181035Z AUTO 13003KT 10SM CLR 17/14 A3011 RMK AO2
KBBB 181015Z AUTO 17004KT 10SM SCT070 18/14 A3011 RMK AO2
KBBB 180955Z AUTO 17004KT 10SM SCT060 17/14 A3011 RMK AO2
KBBB 180935Z AUTO 17004KT 10SM SCT060 SCT080 17/14 A3011 RMK AO2
KBBB 180915Z AUTO 17004KT 10SM SCT070 17/14 A3011 RMK AO2
KBBB 180855Z AUTO 17003KT 10SM SCT045 SCT070 17/14 A3012 RMK AO2
KBBB 180835Z AUTO 00000KT 10SM SCT045 SCT070 17/14 A3011 RMK AO2
KBBB 180815Z AUTO 18003KT 10SM CLR 17/14 A3011 RMK AO2
KBBB 180755Z AUTO 18004KT 10SM CLR 18/14 A3011 RMK AO2
KBBB 180735Z AUTO 17006KT 10SM CLR 18/15 A3011 RMK AO2
KBBB 180715Z AUTO 18006KT 10SM CLR 19/15 A3011 RMK AO2
KBBB 180655Z AUTO 17005KT 10SM CLR 19/15 A3010 RMK AO2
KBBB 180635Z AUTO 00000KT 10SM CLR 19/15 A3011 RMK AO2
KBBB 180615Z AUTO 14003KT 10SM CLR 19/15 A3011 RMK AO2
KBBB 180555Z AUTO 13003KT 10SM SCT080 19/16 A3010 RMK AO2
KBBB 180535Z AUTO 12004KT 10SM SCT050 SCT070 20/16 A3011 RMK AO2
KBBB 180515Z AUTO 12003KT 10SM SCT050 BKN070 20/16 A3011 RMK AO2
KBBB 180456Z AUTO 12003KT 10SM BKN070 19/16 A3011 RMK AO2
KBBB 180435Z AUTO 13003KT 10SM CLR 18/16 A3011 RMK AO2
KBBB 180415Z AUTO 00000KT 10SM CLR 18/16 A3011 RMK AO2
KBBB 180356Z AUTO 00000KT 10SM CLR 18/16 A3011 RMK AO2
KBBB 180335Z AUTO 00000KT 10SM CLR 20/16 A3011 RMK AO2
KBBB 180315Z AUTO 00000KT 10SM CLR 21/16 A3011 RMK AO2
KBBB 180255Z AUTO 13003KT 10SM CLR 22/16 A3011 RMK AO2
KBBB 180235Z AUTO 13003KT 10SM CLR 22/16 A3011 RMK AO2
KBBB 180215Z AUTO 00000KT 10SM CLR 23/17 A3010 RMK AO2
KBBB 180155Z AUTO 00000KT 10SM CLR 23/17 A3010 RMK AO2
KBBB 180135Z AUTO 00000KT 10SM CLR 23/17 A3010 RMK AO2